Last 7 Days

Gordon Valley 3 (GV3)

Hourly Data | America/Los_Angeles
as of 6/18/19 10:33 PM PDT
Date & Time Temp (°F) RH (%) Dew Pt (°F) Wind Spd (mph) Wind Dir (°) Wind Gust (mph) Wind Gst Dir (°) Latest Rain (In) Solar Rad Tot Hr (Cal/cm2) Daily Rain (In) Daily Min Temp (°F) Daily Max Temp (°F)
6/18/19 - 2200 70.1 63 56.7 1.7 S | 186 6.6 SE | 145 0.00 0 0.00 55.8 94.7
6/18/19 - 2100 75.3 56 58.6 2.6 NW | 325 6.1 NW | 311 0.00 1 0.00 55.8 94.7
6/18/19 - 2000 83.1 47 61.0 2.3 NNW | 347 8.8 WNW | 284 0.00 12 0.00 55.8 94.7
6/18/19 - 1900 87.8 43 62.8 3.7 NNW | 348 9.0 NNE | 14 0.00 28 0.00 55.8 94.7
6/18/19 - 1800 89.5 43 64.1 5.7 NNE | 14 9.6 N | 354 0.00 46 0.00 55.8 94.7
6/18/19 - 1700 91.5 43 65.9 5.9 N | 9 9.8 N | 3 0.00 62 0.00 55.8 94.7
6/18/19 - 1600 92.2 43 66.2 6.5 NNE | 13 12.8 N | 2 0.00 75 0.00 55.8 94.7
6/18/19 - 1500 92.7 42 66.4 5.0 N | 7 9.6 N | 5 0.00 83 0.00 55.8 94.7
6/18/19 - 1400 93.4 37 63.4 3.2 SSE | 160 6.6 S | 174 0.00 87 0.00 55.8 94.7
6/18/19 - 1300 89.8 40 62.5 6.2 SSE | 167 11.1 S | 178 0.00 87 0.00 55.8 91.8
6/18/19 - 1200 88.2 41 61.7 5.4 S | 172 8.6 S | 188 0.00 81 0.00 55.8 89.4
6/18/19 - 1100 84.2 45 60.2 3.6 SSE | 159 6.4 ESE | 117 0.00 70 0.00 55.8 87.1
6/18/19 - 1000 78.1 53 59.8 3.1 SE | 142 5.8 SSE | 149 0.00 45 0.00 55.8 80.5
6/18/19 - 0900 74.1 61 59.7 1.9 S | 183 4.6 SSW | 211 0.00 40 0.00 55.8 77.0
6/18/19 - 0800 69.4 69 58.7 0.4 S | 183 3.1 SSE | 164 0.00 23 0.00 55.8 71.6
6/18/19 - 0700 59.4 92 57.1 0.1 NE | 37 2.1 NE | 48 0.00 8 0.00 55.8 65.2
6/18/19 - 0600 56.4 95 55.0 0.1 NNE | 20 2.9 NNE | 17 0.00 0 0.00 55.8 61.3
6/18/19 - 0500 57.9 93 55.8 0.0 NE | 34 1.6 NNE | 26 0.00 0 0.00 57.1 61.3
6/18/19 - 0400 60.0 86 56.0 0.3 W | 274 3.4 W | 265 0.00 0 0.00 59.0 61.3
6/18/19 - 0300 60.7 85 56.3 1.8 SW | 230 5.1 SSW | 211 0.00 0 0.00 59.6 61.3
6/18/19 - 0200 60.0 90 57.0 0.2 ENE | 63 2.7 ENE | 60 0.00 0 0.00 59.6 60.5
6/18/19 - 0100 60.3 89 57.2 0.2 NNE | 13 2.2 NE | 37 0.00 0 0.00 52.9 90.5
6/18/19 - 0000 61.8 81 56.0 0.2 N | 3 2.9 NNE | 17 0.00 0 0.00 52.9 90.5
6/17/19 - 2300 63.7 78 56.7 0.5 SE | 135 3.4 ESE | 114 0.00 0 0.00 52.9 90.5
6/17/19 - 2200 67.7 70 57.5 0.7 SSE | 157 3.9 SE | 144 0.00 0 0.00 52.9 90.5
6/17/19 - 2100 74.8 59 59.4 1.7 NNW | 337 6.4 NNW | 346 0.00 1 0.00 52.9 90.5
6/17/19 - 2000 81.6 50 61.1 3.4 N | 5 9.3 N | 0 0.00 13 0.00 52.9 90.5
6/17/19 - 1900 85.0 47 62.3 5.3 NNE | 15 9.3 N | 3 0.00 28 0.00 52.9 90.5
6/17/19 - 1800 87.6 43 62.3 5.7 NNW | 344 12.0 N | 354 0.00 45 0.00 52.9 90.5
6/17/19 - 1700 89.3 41 62.5 5.7 NW | 315 13.2 NW | 312 0.00 61 0.00 52.9 90.5
6/17/19 - 1600 89.2 43 64.0 5.2 NNW | 332 9.1 N | 351 0.00 74 0.00 52.9 90.3
6/17/19 - 1500 88.9 44 64.4 4.7 NNW | 345 9.3 NNW | 329 0.00 82 0.00 52.9 90.3
6/17/19 - 1400 88.2 43 63.1 5.9 S | 174 11.1 SSE | 168 0.00 86 0.00 52.9 90.3
6/17/19 - 1300 85.3 45 61.7 6.6 S | 176 12.5 S | 176 0.00 86 0.00 52.9 86.2
6/17/19 - 1200 81.3 50 60.9 5.1 SSE | 160 8.4 S | 180 0.00 78 0.00 52.9 83.3
6/17/19 - 1100 78.0 53 59.7 4.4 SSE | 158 8.0 SE | 143 0.00 69 0.00 52.9 80.5
6/17/19 - 1000 73.7 58 58.2 3.4 SSE | 152 7.3 SSE | 154 0.00 44 0.00 52.9 75.6
6/17/19 - 0900 69.3 65 57.0 1.8 SSE | 162 5.4 S | 187 0.00 39 0.00 52.9 71.6
6/17/19 - 0800 64.0 73 55.3 0.2 SSE | 162 3.1 SSE | 156 0.00 23 0.00 52.9 67.1
6/17/19 - 0700 55.7 93 53.8 0.3 SE | 137 2.9 SE | 136 0.00 7 0.00 52.9 59.7
6/17/19 - 0600 53.1 96 52.1 0.0 NNE | 33 1.2 NE | 34 0.00 0 0.00 52.9 56.2
6/17/19 - 0500 53.6 95 52.3 0.1 NE | 41 1.7 N | 5 0.00 0 0.00 53.4 56.2
6/17/19 - 0400 54.1 93 52.2 0.1 NNE | 29 1.9 NNE | 30 0.00 0 0.00 53.7 56.2
6/17/19 - 0300 55.2 90 52.5 0.7 SSE | 154 4.9 SSE | 166 0.00 0 0.00 54.7 56.2
6/17/19 - 0200 55.6 89 52.4 0.9 SSE | 168 3.8 SSE | 168 0.00 0 0.00 55.2 56.2
6/17/19 - 0100 56.8 86 52.5 0.9 SE | 142 3.8 SE | 124 0.00 0 0.00 45.0 85.9
6/17/19 - 0000 58.0 82 52.4 1.2 SE | 128 3.4 SSE | 160 0.00 0 0.00 45.0 85.9
6/16/19 - 2300 60.8 75 52.8 2.4 SE | 138 5.4 SSE | 152 0.00 0 0.00 45.0 85.9
6/16/19 - 2200 64.0 70 54.0 2.3 NNW | 346 8.4 NW | 325 0.00 0 0.00 45.0 85.9
6/16/19 - 2100 67.8 66 56.1 1.7 NNW | 344 9.5 N | 7 0.00 1 0.00 45.0 85.9
6/16/19 - 2000 74.1 58 58.3 3.7 N | 10 10.6 NNE | 12 0.00 11 0.00 45.0 85.9
6/16/19 - 1900 79.2 51 59.6 1.8 N | 355 7.6 WNW | 290 0.00 26 0.00 45.0 85.9
6/16/19 - 1800 79.4 49 58.7 5.0 NNW | 336 11.5 N | 6 0.00 29 0.00 45.0 85.9
6/16/19 - 1700 82.6 48 61.1 5.6 N | 349 11.1 NNE | 16 0.00 56 0.00 45.0 85.9
6/16/19 - 1600 84.5 43 59.3 4.6 NNW | 344 10.3 N | 354 0.00 75 0.00 45.0 85.9
6/16/19 - 1500 83.6 46 60.5 4.5 NNE | 25 9.0 NE | 35 0.00 83 0.00 45.0 84.8
6/16/19 - 1400 81.5 47 59.5 3.2 S | 181 8.1 SSE | 156 0.00 88 0.00 45.0 84.1
6/16/19 - 1300 77.2 52 58.3 7.2 S | 181 11.8 S | 180 0.00 88 0.00 45.0 79.7
6/16/19 - 1200 73.9 56 57.3 5.7 S | 169 10.1 SSE | 158 0.00 82 0.00 45.0 75.5
6/16/19 - 1100 70.0 61 56.1 6.8 S | 177 11.0 S | 186 0.00 72 0.00 45.0 72.7
6/16/19 - 1000 67.1 66 55.2 4.3 S | 178 8.8 S | 183 0.00 46 0.00 45.0 68.8
6/16/19 - 0900 63.6 72 54.4 2.1 S | 175 8.1 SSW | 198 0.00 42 0.00 45.0 65.5
6/16/19 - 0800 58.9 83 53.6 0.6 S | 191 3.1 SSW | 209 0.00 23 0.00 45.0 61.6
6/16/19 - 0700 49.3 100 49.3 0.0 NE | 43 1.2 NE | 43 0.00 6 0.00 45.0 56.0
6/16/19 - 0600 45.3 100 45.2 0.0 N | 0 0.0 NNE | 31 0.00 0 0.00 45.0 49.7
6/16/19 - 0500 45.6 99 45.4 0.0 N | 0 0.0 NNE | 31 0.00 0 0.00 45.2 49.7
6/16/19 - 0400 46.6 99 46.4 0.1 NE | 51 1.6 NE | 40 0.00 0 0.00 46.1 49.7
6/16/19 - 0300 47.5 98 47.0 0.0 S | 175 1.2 NE | 40 0.00 0 0.00 46.7 49.7
6/16/19 - 0200 48.9 97 48.0 0.1 NNE | 22 2.2 NNE | 18 0.00 0 0.00 48.2 49.7
6/16/19 - 0100 50.5 95 49.1 0.1 NE | 41 1.6 SE | 145 0.00 0 0.00 45.1 79.6
6/16/19 - 0000 52.3 92 49.9 0.0 SW | 215 0.9 SSE | 160 0.00 0 0.00 45.1 79.6
6/15/19 - 2300 55.2 86 51.1 0.7 SE | 130 3.3 SE | 124 0.00 0 0.00 45.1 79.6
6/15/19 - 2200 57.2 83 52.1 1.7 ESE | 113 3.6 ESE | 116 0.00 0 0.00 45.1 79.6
6/15/19 - 2100 61.8 73 53.2 2.4 SSE | 155 4.8 SSW | 194 0.00 1 0.00 45.1 79.6
6/15/19 - 2000 67.8 61 53.9 5.3 SW | 227 9.8 SW | 227 0.00 13 0.00 45.1 79.6
6/15/19 - 1900 71.7 56 55.0 7.1 WSW | 237 13.0 SW | 228 0.00 30 0.00 45.1 79.6
6/15/19 - 1800 74.4 52 55.7 8.5 WSW | 239 13.3 WSW | 245 0.00 51 0.00 45.1 79.6
6/15/19 - 1700 76.9 51 57.6 4.6 W | 259 16.5 WNW | 300 0.00 59 0.00 45.1 79.6
6/15/19 - 1600 77.5 50 57.5 6.7 SW | 234 13.3 WSW | 245 0.00 74 0.00 45.1 79.6
6/15/19 - 1500 77.6 50 57.4 9.1 SW | 232 15.0 SW | 222 0.00 82 0.00 45.1 79.6
6/15/19 - 1400 77.1 51 57.5 6.1 S | 191 10.8 S | 185 0.00 88 0.00 45.1 78.8
6/15/19 - 1300 75.0 52 56.4 6.7 SSW | 208 11.8 SSW | 194 0.00 88 0.00 45.1 76.1
6/15/19 - 1200 71.9 55 55.0 7.2 SSW | 211 11.8 SW | 231 0.00 85 0.00 45.1 73.9
6/15/19 - 1100 69.1 59 54.0 7.6 SW | 219 12.0 SW | 221 0.00 74 0.00 45.1 70.6
6/15/19 - 1000 65.6 64 53.1 5.7 SW | 214 12.0 SW | 230 0.00 46 0.00 45.1 67.3
6/15/19 - 0900 62.4 70 52.7 3.3 SSW | 199 8.4 SSW | 207 0.00 43 0.00 45.1 63.6
6/15/19 - 0800 57.2 85 52.7 1.1 S | 182 4.4 SSE | 160 0.00 23 0.00 45.1 59.7
6/15/19 - 0700 48.1 100 48.0 0.3 NNE | 16 2.2 NNE | 30 0.00 5 0.00 45.1 52.9
6/15/19 - 0600 45.7 99 45.5 0.1 N | 5 1.9 NNW | 345 0.00 0 0.00 45.1 50.7
6/15/19 - 0500 46.2 99 45.9 0.3 NNE | 19 3.3 NNE | 17 0.00 0 0.00 45.7 50.7
6/15/19 - 0400 47.4 98 46.9 0.4 WSW | 249 2.7 NNW | 344 0.00 0 0.00 46.8 50.7
6/15/19 - 0300 48.9 97 48.1 0.8 NNW | 343 2.9 NNE | 27 0.00 0 0.00 48.0 50.7
6/15/19 - 0200 49.8 96 48.9 0.5 NNE | 19 2.6 NNE | 15 0.00 0 0.00 49.1 50.7
6/15/19 - 0100 51.9 92 49.8 0.9 ENE | 76 3.3 S | 178 0.00 0 0.00 50.0 86.9
6/15/19 - 0000 54.0 90 51.1 0.9 ESE | 108 3.6 E | 100 0.00 0 0.00 50.0 86.9
6/14/19 - 2300 57.4 81 51.7 1.8 S | 181 5.4 SSW | 195 0.00 0 0.00 50.0 86.9
6/14/19 - 2200 61.4 72 52.4 4.5 SSW | 206 7.8 SW | 218 0.00 0 0.00 50.0 86.9
6/14/19 - 2100 65.8 66 54.1 4.4 SSW | 206 8.8 SSW | 212 0.00 1 0.00 50.0 86.9
6/14/19 - 2000 74.1 56 57.3 3.5 WNW | 285 8.4 NW | 309 0.00 13 0.00 50.0 86.9
6/14/19 - 1900 78.1 55 60.4 3.6 NNE | 28 8.0 NNE | 16 0.00 29 0.00 50.0 86.9
6/14/19 - 1800 82.3 52 62.7 4.9 N | 358 10.6 NNE | 13 0.00 47 0.00 50.0 86.9
6/14/19 - 1700 85.0 48 62.9 4.1 N | 2 10.1 NW | 307 0.00 62 0.00 50.0 86.9
6/14/19 - 1600 83.9 50 63.0 6.4 N | 2 12.1 NNW | 330 0.00 75 0.00 50.0 85.6
6/14/19 - 1500 84.4 48 62.5 4.0 NE | 39 9.3 NNE | 13 0.00 84 0.00 50.0 85.6
6/14/19 - 1400 82.4 48 60.7 4.9 S | 173 10.3 SSE | 156 0.00 88 0.00 50.0 84.8
6/14/19 - 1300 78.2 52 59.2 7.4 SSE | 159 11.6 SSE | 167 0.00 88 0.00 50.0 80.8
6/14/19 - 1200 75.1 54 57.1 4.6 SSE | 165 11.1 SSE | 149 0.00 82 0.00 50.0 77.1
6/14/19 - 1100 71.8 57 55.9 4.4 SSW | 194 9.1 SSW | 194 0.00 72 0.00 50.0 73.5
6/14/19 - 1000 68.4 62 55.0 4.7 SSW | 210 8.4 SW | 216 0.00 46 0.00 50.0 70.4
6/14/19 - 0900 64.4 69 53.8 2.5 SSE | 166 6.8 SW | 217 0.00 42 0.00 50.0 66.1
6/14/19 - 0800 61.4 75 53.3 0.7 S | 180 4.8 S | 174 0.00 24 0.00 50.0 63.5
6/14/19 - 0700 52.9 93 51.0 0.4 NE | 55 3.3 NE | 38 0.00 8 0.00 50.0 58.2
6/14/19 - 0600 50.9 95 49.5 0.2 NE | 50 2.4 NE | 46 0.00 0 0.00 50.0 56.6
6/14/19 - 0500 53.1 92 50.9 1.9 SSE | 155 4.9 SE | 143 0.00 0 0.00 52.3 56.6
6/14/19 - 0400 53.8 91 51.3 2.5 SE | 140 3.9 SE | 136 0.00 0 0.00 53.4 56.6
6/14/19 - 0300 54.1 91 51.5 0.5 ESE | 117 2.6 E | 98 0.00 0 0.00 53.4 56.6
6/14/19 - 0200 55.9 87 52.1 1.4 ESE | 123 4.6 SE | 137 0.00 0 0.00 55.1 56.6
6/14/19 - 0100 57.7 82 52.3 0.4 SSE | 148 3.6 SSE | 163 0.00 0 0.00 54.5 86.7
6/14/19 - 0000 59.9 76 52.4 2.5 SE | 132 6.6 S | 169 0.00 0 0.00 54.5 86.7
6/13/19 - 2300 63.0 69 52.6 3.5 SSE | 152 7.8 SSE | 147 0.00 0 0.00 54.5 86.7
6/13/19 - 2200 65.8 66 54.0 2.7 SSE | 148 6.8 SSE | 162 0.00 0 0.00 54.5 86.7
6/13/19 - 2100 70.5 60 56.1 2.4 SSE | 149 6.9 SSE | 149 0.00 1 0.00 54.5 86.7
6/13/19 - 2000 77.5 51 57.7 2.4 SE | 146 6.8 NNW | 346 0.00 9 0.00 54.5 86.7
6/13/19 - 1900 80.6 49 59.8 4.8 N | 352 11.3 NW | 324 0.00 30 0.00 54.5 86.7
6/13/19 - 1800 81.7 51 61.8 6.1 NNE | 17 11.5 NNE | 32 0.00 41 0.00 54.5 86.7
6/13/19 - 1700 83.8 49 62.4 4.6 NNE | 17 12.1 NNW | 342 0.00 63 0.00 54.5 86.7
6/13/19 - 1600 84.9 46 61.6 3.9 NNW | 345 13.8 NNW | 344 0.00 71 0.00 54.5 86.7
6/13/19 - 1500 84.0 46 60.8 5.7 NNW | 340 11.6 N | 3 0.00 79 0.00 54.5 84.7
6/13/19 - 1400 82.4 46 59.7 7.8 NNW | 341 14.0 N | 353 0.00 86 0.00 54.5 83.7
6/13/19 - 1300 82.5 49 61.4 4.7 NNE | 18 9.8 N | 6 0.00 84 0.00 54.5 83.7
6/13/19 - 1200 80.1 50 59.8 3.1 SSE | 156 7.8 SE | 137 0.00 78 0.00 54.5 82.1
6/13/19 - 1100 75.6 57 59.3 4.9 NNE | 30 9.6 NNE | 22 0.00 73 0.00 54.5 78.0
6/13/19 - 1000 72.3 60 57.8 5.6 NNE | 14 11.1 NE | 42 0.00 46 0.00 54.5 73.9
6/13/19 - 0900 70.9 62 57.4 2.3 S | 186 8.3 ENE | 64 0.00 42 0.00 54.5 73.2
6/13/19 - 0800 66.1 73 57.1 2.0 S | 170 4.9 S | 187 0.00 24 0.00 54.5 68.4
6/13/19 - 0700 57.4 91 54.9 0.4 ESE | 113 3.1 SE | 137 0.00 8 0.00 54.5 63.3
6/13/19 - 0600 55.2 94 53.6 0.1 S | 178 1.9 W | 260 0.00 0 0.00 54.5 60.6
6/13/19 - 0500 56.2 94 54.4 0.4 NE | 54 3.1 S | 190 0.00 0 0.00 55.7 60.6
6/13/19 - 0400 56.4 93 54.5 0.1 N | 4 1.7 NNW | 334 0.00 0 0.00 55.9 60.6
6/13/19 - 0300 57.7 91 55.0 0.2 NNE | 28 2.2 NNE | 26 0.00 0 0.00 56.9 60.6
6/13/19 - 0200 59.1 87 55.3 0.0 NNE | 18 1.4 NE | 39 0.00 0 0.00 58.1 60.6
6/13/19 - 0100 61.3 84 56.3 0.3 WNW | 285 2.9 NNE | 15 0.00 0 0.00 60.5 99.5
6/13/19 - 0000 62.6 82 57.0 0.2 NNE | 17 2.9 NNE | 12 0.00 0 0.00 61.6 99.5
6/12/19 - 2300 67.7 68 56.9 0.5 N | 356 3.9 N | 6 0.00 0 0.00 64.5 99.5
6/12/19 - 2200 71.6 60 57.1 1.9 N | 355 6.1 NNW | 345 0.00 0 0.00 66.4 99.5
6/12/19 - 2100 75.3 57 59.1 1.1 N | 356 6.3 N | 352 0.00 1 0.00 66.4 99.5
6/12/19 - 2000 83.8 46 60.6 2.9 NNE | 13 8.4 N | 3 0.00 12 0.00 66.4 99.5
6/12/19 - 1900 89.0 39 61.1 4.2 SW | 216 9.3 WSW | 244 0.00 28 0.00 66.4 99.5
6/12/19 - 1800 93.1 37 62.9 4.6 N | 358 8.4 WSW | 255 0.00 45 0.00 66.4 99.5
6/12/19 - 1700 96.2 31 60.2 4.1 NW | 307 8.8 NNW | 334 0.00 61 0.00 66.4 99.5
6/12/19 - 1600 98.2 23 54.1 3.2 WNW | 296 7.6 WNW | 285 0.00 74 0.00 66.4 99.5
6/12/19 - 1500 98.8 24 56.1 4.9 S | 187 9.0 S | 190 0.00 84 0.00 66.4 99.5
6/12/19 - 1400 95.8 29 58.0 5.0 SSE | 156 8.6 ESE | 107 0.00 88 0.00 66.4 96.9
6/12/19 - 1300 95.1 30 59.0 3.5 S | 170 7.8 S | 174 0.00 85 0.00 66.4 96.0
6/12/19 - 1200 93.7 29 57.1 2.8 SSE | 166 6.4 S | 188 0.00 82 0.00 66.4 94.6
6/12/19 - 1100 91.3 31 56.2 2.2 S | 175 6.4 S | 178 0.00 71 0.00 66.4 92.8
6/12/19 - 1000 86.7 38 57.9 2.4 SSE | 160 5.4 SSE | 156 0.00 43 0.00 66.4 89.2
6/12/19 - 0900 80.5 47 57.9 1.2 NNE | 30 5.3 E | 94 0.00 34 0.00 66.4 83.8
6/12/19 - 0800 71.7 61 57.5 1.1 NE | 42 4.1 NE | 43 0.00 10 0.00 66.4 74.4
6/12/19 - 0700 67.8 67 56.5 1.4 NE | 36 4.9 SSE | 168 0.00 3 0.00 66.4 72.7
6/12/19 - 0600 67.6 64 55.0 1.3 NE | 47 3.8 ENE | 76 0.00 0 0.00 66.4 72.7
6/12/19 - 0500 68.0 66 56.3 1.1 NNE | 31 3.4 NE | 43 0.00 0 0.00 66.7 72.7
6/12/19 - 0400 67.9 67 56.7 1.5 NE | 37 3.9 NE | 34 0.00 0 0.00 67.4 72.7
6/12/19 - 0300 70.8 58 55.3 0.8 E | 84 3.8 SW | 230 0.00 0 0.00 68.3 72.7
6/12/19 - 0200 70.4 59 55.4 0.8 ENE | 78 4.4 ENE | 78 0.00 0 0.00 68.3 72.7
6/12/19 - 0100 66.7 68 56.0 0.9 NNE | 19 3.6 NE | 49 0.00 0 0.00 59.7 101.9
6/12/19 - 0000 66.7 69 56.3 1.5 NNE | 26 4.3 NNE | 19 0.00 0 0.00 59.7 101.9
6/11/19 - 2300 68.4 71 58.5 1.5 NNE | 14 4.6 N | 11 0.00 0 0.00 59.7 101.9
Max 98.8 100 66.4 9.1 - 16.5 - 0.00 88 0.00 68.3 101.9
Avg 70.2 66 56.4 2.8 - 6.7 - 0.00 31 - - -
Min 45.3 23 45.2 0.0 - 0.0 - 0.00 0 0.00 45.0 49.7
Total - - - - - - - 0.00 - - - -
Tip: Bookmark this page for easy future reference